createdAt,value
2018-08-23T00:04:51.843Z,18.20
2018-08-23T00:07:22.256Z,18.30
2018-08-23T00:09:53.171Z,18.30
2018-08-23T00:13:26.440Z,18.20
2018-08-23T00:15:56.883Z,18.20
2018-08-23T00:18:27.367Z,18.10
2018-08-23T00:23:27.495Z,18.00
2018-08-23T00:25:57.819Z,18.00
2018-08-23T00:28:28.216Z,17.80
2018-08-23T00:30:58.636Z,17.70
2018-08-23T00:33:29.051Z,17.70
2018-08-23T00:35:59.708Z,17.70
2018-08-23T00:38:30.127Z,17.90
2018-08-23T00:41:00.503Z,17.90
2018-08-23T00:46:04.749Z,18.00
2018-08-23T00:48:35.211Z,17.80
2018-08-23T00:51:06.811Z,17.70
2018-08-23T00:56:17.075Z,17.70
2018-08-23T00:58:51.711Z,17.70
2018-08-23T01:03:51.726Z,17.80
2018-08-23T01:06:24.723Z,17.80
2018-08-23T01:11:24.770Z,17.70
2018-08-23T01:13:55.171Z,17.70
2018-08-23T01:16:25.634Z,17.70
2018-08-23T01:19:00.682Z,17.70
2018-08-23T01:21:33.380Z,17.70
2018-08-23T01:24:03.911Z,17.60
2018-08-23T01:26:35.373Z,17.70
2018-08-23T01:29:15.072Z,17.70
2018-08-23T01:31:45.283Z,17.60
2018-08-23T01:34:15.760Z,17.60
2018-08-23T01:36:46.267Z,17.40
2018-08-23T01:39:16.639Z,17.40
2018-08-23T01:41:47.429Z,17.30
2018-08-23T01:44:17.937Z,17.30
2018-08-23T01:46:48.376Z,17.20
2018-08-23T01:49:19.215Z,17.00
2018-08-23T01:51:49.517Z,17.00
2018-08-23T01:54:20.015Z,17.00
2018-08-23T01:56:50.602Z,17.00
2018-08-23T01:59:21.099Z,16.90
2018-08-23T02:01:51.422Z,16.70
2018-08-23T02:04:21.899Z,16.70
2018-08-23T02:06:52.431Z,16.60
2018-08-23T02:09:22.879Z,16.50
2018-08-23T02:11:53.360Z,16.50
2018-08-23T02:14:24.383Z,16.50
2018-08-23T02:16:54.827Z,16.40
2018-08-23T02:19:25.407Z,16.40
2018-08-23T02:21:55.799Z,16.30
2018-08-23T02:24:30.391Z,16.30
2018-08-23T02:27:00.709Z,16.20
2018-08-23T02:29:41.487Z,16.20
2018-08-23T02:32:11.775Z,16.20
2018-08-23T02:37:15.051Z,16.20
2018-08-23T02:39:46.279Z,16.10
2018-08-23T02:42:18.669Z,16.10
2018-08-23T02:44:49.167Z,16.30
2018-08-23T02:47:19.512Z,16.40
2018-08-23T02:49:50.120Z,16.40
2018-08-23T02:52:20.695Z,16.50
2018-08-23T02:54:51.120Z,16.50
2018-08-23T02:57:21.605Z,16.60
2018-08-23T02:59:51.973Z,16.70
2018-08-23T03:02:22.537Z,16.80
2018-08-23T03:04:53.058Z,16.80
2018-08-23T03:12:23.592Z,16.90
2018-08-23T03:14:54.201Z,16.80
2018-08-23T03:17:28.537Z,16.70
2018-08-23T03:20:03.785Z,16.70
2018-08-23T03:22:34.909Z,16.70
2018-08-23T03:25:06.867Z,16.80
2018-08-23T03:27:37.389Z,16.70
2018-08-23T03:30:09.280Z,16.70
2018-08-23T03:32:39.607Z,16.70
2018-08-23T03:35:10.468Z,16.70
2018-08-23T03:37:40.946Z,16.70
2018-08-23T03:40:12.753Z,16.50
2018-08-23T03:47:55.220Z,16.40
2018-08-23T03:50:25.488Z,16.40
2018-08-23T03:52:56.049Z,16.30
2018-08-23T03:58:03.485Z,16.30
2018-08-23T04:00:38.911Z,16.40
2018-08-23T04:03:19.898Z,16.50
2018-08-23T04:05:50.305Z,16.50
2018-08-23T04:08:20.830Z,16.50
2018-08-23T04:10:51.201Z,16.60
2018-08-23T04:13:21.681Z,16.60
2018-08-23T04:18:21.821Z,16.60
2018-08-23T04:20:55.323Z,16.60
2018-08-23T04:23:25.777Z,16.60
2018-08-23T04:25:56.189Z,16.70
2018-08-23T04:28:26.672Z,16.70
2018-08-23T04:33:26.780Z,16.70
2018-08-23T04:35:57.285Z,16.80
2018-08-23T04:38:27.656Z,16.80
2018-08-23T04:41:00.491Z,16.80
2018-08-23T04:43:30.900Z,16.90
2018-08-23T04:46:03.982Z,17.00
2018-08-23T04:51:03.964Z,17.20
2018-08-23T04:53:34.432Z,17.40
2018-08-23T04:56:04.745Z,17.50
2018-08-23T04:58:35.214Z,17.70
2018-08-23T05:01:05.745Z,17.90
2018-08-23T05:03:36.170Z,18.00
2018-08-23T05:06:06.573Z,18.20
2018-08-23T05:08:37.019Z,18.20
2018-08-23T05:11:07.509Z,18.30
2018-08-23T05:13:38.052Z,18.40
2018-08-23T05:18:38.321Z,18.50
2018-08-23T05:21:08.817Z,18.50
2018-08-23T05:26:15.425Z,18.50
2018-08-23T05:29:01.181Z,18.30
2018-08-23T05:31:32.813Z,18.20
2018-08-23T05:34:05.601Z,18.00
2018-08-23T05:36:36.096Z,18.00
2018-08-23T05:39:09.403Z,18.10
2018-08-23T05:41:39.833Z,18.30
2018-08-23T05:44:19.040Z,18.30
2018-08-23T05:46:53.047Z,18.40
2018-08-23T05:49:23.709Z,18.50
2018-08-23T05:51:57.560Z,18.60
2018-08-23T05:56:57.777Z,18.80
2018-08-23T05:59:28.381Z,18.90
2018-08-23T06:01:58.897Z,19.00
2018-08-23T06:04:48.046Z,19.10
2018-08-23T06:07:18.389Z,19.20
2018-08-23T06:09:48.772Z,19.20
2018-08-23T06:14:49.000Z,19.40
2018-08-23T06:19:49.076Z,19.50
2018-08-23T06:22:19.432Z,19.50
2018-08-23T06:24:49.964Z,19.70
2018-08-23T06:27:20.505Z,19.80
2018-08-23T06:29:51.084Z,19.90
2018-08-23T06:32:21.463Z,20.00
2018-08-23T06:34:52.804Z,20.10
2018-08-23T06:37:23.592Z,20.10
2018-08-23T06:39:54.343Z,20.20
2018-08-23T06:42:39.395Z,20.40
2018-08-23T06:45:09.893Z,20.50
2018-08-23T06:47:44.352Z,20.70
2018-08-23T06:50:14.716Z,20.80
2018-08-23T06:52:50.126Z,20.90
2018-08-23T06:55:25.493Z,20.90
2018-08-23T06:58:00.125Z,21.00
2018-08-23T07:00:30.627Z,21.00
2018-08-23T07:03:01.241Z,21.10
2018-08-23T07:05:31.635Z,21.30
2018-08-23T07:08:02.141Z,21.50
2018-08-23T07:10:32.688Z,21.70
2018-08-23T07:15:32.729Z,22.00
2018-08-23T07:20:33.294Z,22.20
2018-08-23T07:23:04.017Z,22.30
2018-08-23T07:25:38.658Z,22.40
2018-08-23T07:28:09.264Z,22.50
2018-08-23T07:30:39.684Z,22.70
2018-08-23T07:35:40.055Z,22.90
2018-08-23T07:38:10.437Z,23.10
2018-08-23T07:40:41.112Z,23.20
2018-08-23T07:43:11.524Z,23.30
2018-08-23T07:45:42.008Z,23.50
2018-08-23T07:48:12.453Z,23.50
2018-08-23T07:50:43.227Z,23.50
2018-08-23T07:53:13.661Z,23.70
2018-08-23T07:55:44.182Z,23.80
2018-08-23T07:58:14.864Z,23.90
2018-08-23T08:00:45.340Z,24.10
2018-08-23T08:03:16.156Z,24.20
2018-08-23T08:08:16.772Z,24.50
2018-08-23T08:10:47.324Z,24.60
2018-08-23T08:15:47.481Z,25.00
2018-08-23T08:18:24.169Z,25.10
2018-08-23T08:21:04.698Z,25.20
2018-08-23T08:26:05.488Z,25.50
2018-08-23T08:28:36.185Z,25.60
2018-08-23T08:36:07.776Z,26.20
2018-08-23T08:38:38.232Z,26.40
2018-08-23T08:41:08.626Z,26.50
2018-08-23T08:46:08.862Z,26.70
2018-08-23T08:51:21.917Z,26.80
2018-08-23T08:53:53.233Z,26.90
2018-08-23T08:56:27.309Z,27.20
2018-08-23T08:58:57.741Z,27.30
2018-08-23T09:01:28.344Z,27.60
2018-08-23T09:03:58.944Z,27.70
2018-08-23T09:09:14.060Z,27.90
2018-08-23T09:11:44.591Z,28.10
2018-08-23T09:14:14.936Z,28.40
2018-08-23T09:16:45.803Z,28.60
2018-08-23T09:19:16.357Z,28.70
2018-08-23T09:21:52.439Z,28.80
2018-08-23T09:24:28.860Z,28.70
2018-08-23T09:26:59.409Z,28.90
2018-08-23T09:32:27.427Z,29.00
2018-08-23T09:35:00.068Z,29.00
2018-08-23T09:37:35.247Z,28.90
2018-08-23T09:40:06.093Z,29.20
2018-08-23T09:42:37.302Z,29.20
2018-08-23T09:45:17.170Z,29.50
2018-08-23T09:47:47.595Z,29.80
2018-08-23T09:50:18.028Z,29.90
2018-08-23T09:52:49.730Z,29.70
2018-08-23T09:55:21.321Z,29.70
2018-08-23T09:57:51.761Z,29.70
2018-08-23T10:00:30.172Z,29.70
2018-08-23T10:03:05.803Z,29.90
2018-08-23T10:05:47.720Z,29.90
2018-08-23T10:08:23.511Z,29.90
2018-08-23T10:10:58.776Z,30.00
2018-08-23T10:13:34.322Z,29.90
2018-08-23T10:16:09.636Z,29.80
2018-08-23T10:18:45.120Z,29.90
2018-08-23T10:21:16.752Z,30.00
2018-08-23T10:23:47.354Z,30.20
2018-08-23T10:26:30.106Z,30.60
2018-08-23T10:29:00.944Z,30.70
2018-08-23T10:36:35.224Z,31.20
2018-08-23T10:39:07.867Z,31.60
2018-08-23T10:49:52.937Z,31.70
2018-08-23T10:52:23.324Z,31.20
2018-08-23T10:57:23.359Z,31.50
2018-08-23T10:59:53.672Z,31.80
2018-08-23T11:04:53.744Z,32.30
2018-08-23T11:07:28.267Z,32.70
2018-08-23T11:10:03.712Z,33.00
2018-08-23T11:12:39.299Z,33.10
2018-08-23T11:15:15.007Z,33.20
2018-08-23T11:17:50.457Z,33.50
2018-08-23T11:20:25.908Z,33.50
2018-08-23T11:22:56.363Z,33.20
2018-08-23T11:25:27.239Z,33.20
2018-08-23T11:27:57.836Z,33.20
2018-08-23T11:30:28.319Z,33.60
2018-08-23T11:32:58.808Z,33.80
2018-08-23T11:35:29.273Z,33.90
2018-08-23T11:37:59.652Z,34.00
2018-08-23T11:40:30.013Z,34.00
2018-08-23T11:43:00.824Z,34.10
2018-08-23T11:48:00.965Z,34.10
2018-08-23T11:53:01.202Z,34.60
2018-08-23T11:55:32.070Z,34.60
2018-08-23T11:58:02.712Z,35.10
2018-08-23T12:00:33.188Z,35.60
2018-08-23T12:03:03.724Z,36.00
2018-08-23T12:10:33.392Z,36.70
2018-08-23T12:13:03.739Z,36.50
2018-08-23T12:15:34.407Z,34.90
2018-08-23T12:18:05.056Z,34.60
2018-08-23T12:23:05.421Z,36.00
2018-08-23T12:25:35.827Z,37.10
2018-08-23T12:28:11.340Z,37.30
2018-08-23T12:30:42.676Z,36.80
2018-08-23T12:33:13.040Z,36.70
2018-08-23T12:38:20.809Z,37.90
2018-08-23T12:40:56.674Z,38.40
2018-08-23T12:43:32.296Z,38.40
2018-08-23T12:46:04.013Z,37.80
2018-08-23T12:53:35.718Z,37.20
2018-08-23T12:56:06.369Z,37.70
2018-08-23T12:58:38.028Z,38.20
2018-08-23T13:01:12.899Z,38.40
2018-08-23T13:03:44.326Z,38.90
2018-08-23T13:06:15.194Z,38.90
2018-08-23T13:08:45.782Z,40.00
2018-08-23T13:11:16.131Z,40.70
2018-08-23T13:13:46.659Z,41.50
2018-08-23T13:16:17.079Z,41.40
2018-08-23T13:18:47.516Z,41.50
2018-08-23T13:21:17.995Z,40.70
2018-08-23T13:23:48.243Z,41.10
2018-08-23T13:26:18.852Z,40.00
2018-08-23T13:28:49.449Z,40.00
2018-08-23T13:33:49.663Z,38.20
2018-08-23T13:36:20.249Z,35.60
2018-08-23T13:38:50.781Z,35.10
2018-08-23T13:41:21.433Z,34.60
2018-08-23T13:43:51.763Z,34.30
2018-08-23T13:46:22.512Z,34.70
2018-08-23T13:48:52.998Z,36.10
2018-08-23T13:51:23.517Z,37.90
2018-08-23T13:53:53.802Z,39.20
2018-08-23T13:58:55.613Z,39.90
2018-08-23T14:01:29.703Z,39.80
2018-08-23T14:06:29.721Z,41.00
2018-08-23T14:09:00.152Z,40.30
2018-08-23T14:11:30.488Z,39.40
2018-08-23T14:14:01.056Z,38.90
2018-08-23T14:16:31.419Z,38.80
2018-08-23T14:19:01.844Z,38.40
2018-08-23T14:21:32.323Z,38.00
2018-08-23T14:24:02.900Z,39.20
2018-08-23T14:26:33.694Z,39.10
2018-08-23T14:29:04.092Z,38.60
2018-08-23T14:34:04.099Z,40.00
2018-08-23T14:36:34.581Z,41.00
2018-08-23T14:39:07.107Z,41.50
2018-08-23T14:41:37.952Z,41.50
2018-08-23T14:44:08.625Z,41.10
2018-08-23T14:46:44.079Z,42.10
2018-08-23T14:49:45.112Z,40.80
2018-08-23T14:52:15.503Z,38.70
2018-08-23T14:57:20.564Z,36.10
2018-08-23T15:04:50.403Z,34.00
2018-08-23T15:09:50.508Z,36.80
2018-08-23T15:12:20.990Z,36.90
2018-08-23T15:14:51.394Z,36.60
2018-08-23T15:17:21.812Z,36.00
2018-08-23T15:24:51.764Z,36.70
2018-08-23T15:27:22.157Z,37.60
2018-08-23T15:29:52.496Z,37.20
2018-08-23T15:32:22.920Z,36.90
2018-08-23T15:34:53.311Z,36.90
2018-08-23T15:37:23.891Z,37.30
2018-08-23T15:42:24.227Z,34.70
2018-08-23T15:44:54.565Z,34.80
2018-08-23T15:47:25.271Z,34.70
2018-08-23T15:49:55.708Z,35.30
2018-08-23T15:54:56.005Z,37.40
2018-08-23T15:57:26.480Z,38.50
2018-08-23T15:59:56.993Z,37.90
2018-08-23T16:02:27.548Z,37.20
2018-08-23T16:07:27.773Z,38.90
2018-08-23T16:12:27.916Z,39.30
2018-08-23T16:14:58.741Z,39.40
2018-08-23T16:20:09.080Z,39.40
2018-08-23T16:22:39.612Z,39.10
2018-08-23T16:25:10.368Z,38.60
2018-08-23T16:27:40.868Z,37.60
2018-08-23T16:30:11.277Z,36.50
2018-08-23T16:32:41.959Z,35.70
2018-08-23T16:35:12.505Z,35.00
2018-08-23T16:40:16.772Z,33.90
2018-08-23T16:42:47.216Z,33.50
2018-08-23T16:45:17.616Z,33.20
2018-08-23T16:47:48.045Z,33.00
2018-08-23T16:50:18.561Z,32.80
2018-08-23T16:52:49.053Z,32.60
2018-08-23T16:55:19.944Z,32.50
2018-08-23T16:58:43.290Z,32.30
2018-08-23T17:01:13.660Z,32.10
2018-08-23T17:03:47.348Z,31.80
2018-08-23T17:06:17.818Z,31.50
2018-08-23T17:08:48.423Z,31.20
2018-08-23T17:11:18.925Z,30.90
2018-08-23T17:13:49.351Z,30.60
2018-08-23T17:16:24.796Z,30.30
2018-08-23T17:18:55.396Z,30.00
2018-08-23T17:23:55.536Z,29.60
2018-08-23T17:26:25.862Z,29.50
2018-08-23T17:28:56.689Z,29.50
2018-08-23T17:33:56.828Z,29.60
2018-08-23T17:41:26.692Z,29.20
2018-08-23T17:43:57.101Z,29.00
2018-08-23T17:48:57.236Z,28.70
2018-08-23T17:53:57.484Z,28.30
2018-08-23T17:56:27.933Z,28.10
2018-08-23T17:58:59.485Z,27.90
2018-08-23T18:01:29.737Z,27.80
2018-08-23T18:04:00.360Z,27.60
2018-08-23T18:06:30.741Z,27.50
2018-08-23T18:09:01.505Z,27.50
2018-08-23T18:11:32.079Z,27.50
2018-08-23T18:14:02.701Z,27.40
2018-08-23T18:16:38.047Z,27.40
2018-08-23T18:19:08.532Z,27.40
2018-08-23T18:21:39.808Z,27.50
2018-08-23T18:24:10.232Z,27.40
2018-08-23T18:26:40.660Z,27.40
2018-08-23T18:29:11.141Z,27.30
2018-08-23T18:31:41.589Z,27.20
2018-08-23T18:34:12.149Z,27.20
2018-08-23T18:36:43.662Z,27.10
2018-08-23T18:39:14.297Z,27.20
2018-08-23T18:41:45.004Z,27.10
2018-08-23T18:44:15.707Z,27.00
2018-08-23T18:46:46.169Z,26.90
2018-08-23T18:49:16.616Z,26.90
2018-08-23T18:51:47.196Z,26.90
2018-08-23T18:54:19.024Z,27.00
2018-08-23T18:56:49.510Z,27.10
2018-08-23T18:59:20.069Z,27.10
2018-08-23T19:01:50.640Z,27.20
2018-08-23T19:04:21.192Z,27.10
2018-08-23T19:09:21.625Z,26.60
2018-08-23T19:14:21.801Z,26.20
2018-08-23T19:16:57.176Z,26.00
2018-08-23T19:19:27.835Z,25.80
2018-08-23T19:21:58.273Z,25.60
2018-08-23T19:29:28.152Z,25.10
2018-08-23T19:31:58.720Z,25.00
2018-08-23T19:34:29.211Z,24.90
2018-08-23T19:36:59.719Z,24.80
2018-08-23T19:39:30.676Z,24.70
2018-08-23T19:42:01.272Z,24.70
2018-08-23T19:47:06.424Z,24.60
2018-08-23T19:52:12.225Z,24.30
2018-08-23T19:54:42.924Z,24.20
2018-08-23T19:57:13.471Z,24.10
2018-08-23T19:59:44.053Z,24.10
2018-08-23T20:02:14.604Z,24.10
2018-08-23T20:07:15.564Z,24.20
2018-08-23T20:12:16.297Z,24.10
2018-08-23T20:14:46.748Z,24.00
2018-08-23T20:19:46.929Z,23.70
2018-08-23T20:22:17.392Z,23.60
2018-08-23T20:24:48.369Z,23.50
2018-08-23T20:27:18.835Z,23.40
2018-08-23T20:29:49.580Z,23.30
2018-08-23T20:32:20.557Z,23.20
2018-08-23T20:34:50.976Z,23.10
2018-08-23T20:39:51.041Z,22.90
2018-08-23T20:42:21.337Z,22.80
2018-08-23T20:47:21.456Z,22.50
2018-08-23T20:52:21.492Z,22.20
2018-08-23T20:54:51.954Z,22.20
2018-08-23T20:57:22.367Z,22.30
2018-08-23T20:59:52.664Z,22.40
2018-08-23T21:02:23.103Z,22.50
2018-08-23T21:07:23.172Z,22.30
2018-08-23T21:09:53.854Z,22.30
2018-08-23T21:12:25.251Z,22.30
2018-08-23T21:14:55.797Z,22.30
2018-08-23T21:17:26.217Z,22.20
2018-08-23T21:19:56.641Z,22.20
2018-08-23T21:22:27.003Z,22.30
2018-08-23T21:24:57.493Z,22.80
2018-08-23T21:27:27.832Z,23.00
2018-08-23T21:29:58.408Z,23.00
2018-08-23T21:34:58.690Z,22.70
2018-08-23T21:37:29.117Z,22.50
2018-08-23T21:39:59.661Z,22.30
2018-08-23T21:42:30.647Z,22.30
2018-08-23T21:47:30.812Z,22.10
2018-08-23T21:50:01.304Z,22.00
2018-08-23T21:52:31.608Z,21.70
2018-08-23T21:55:02.057Z,21.20
2018-08-23T21:57:32.995Z,21.00
2018-08-23T22:02:33.029Z,21.10
2018-08-23T22:07:33.372Z,21.00
2018-08-23T22:12:33.560Z,21.20
2018-08-23T22:15:04.135Z,21.20
2018-08-23T22:17:34.668Z,21.10
2018-08-23T22:22:35.084Z,21.00
2018-08-23T22:25:05.692Z,21.00
2018-08-23T22:27:36.068Z,21.00
2018-08-23T22:32:36.920Z,20.70
2018-08-23T22:37:37.078Z,20.30
2018-08-23T22:40:08.001Z,20.20
2018-08-23T22:42:38.368Z,20.20
2018-08-23T22:45:08.976Z,20.30
2018-08-23T22:47:39.609Z,20.30
2018-08-23T22:50:10.238Z,20.20
2018-08-23T22:52:40.773Z,20.20
2018-08-23T22:55:11.155Z,20.20
2018-08-23T22:57:41.572Z,20.20
2018-08-23T23:00:12.149Z,20.10
2018-08-23T23:02:42.647Z,20.10
2018-08-23T23:05:13.034Z,19.90
2018-08-23T23:07:43.593Z,19.70
2018-08-23T23:10:14.044Z,19.60
2018-08-23T23:12:44.565Z,19.70
2018-08-23T23:15:20.341Z,19.70
2018-08-23T23:17:50.943Z,19.60
2018-08-23T23:22:51.184Z,19.60
2018-08-23T23:27:51.416Z,19.70
2018-08-23T23:32:52.378Z,19.50
2018-08-23T23:37:52.589Z,19.40
2018-08-23T23:40:23.061Z,19.40
2018-08-23T23:42:53.568Z,19.50
2018-08-23T23:47:53.569Z,19.30
2018-08-23T23:50:24.127Z,19.30
2018-08-23T23:55:24.121Z,19.30
2018-08-23T23:57:54.592Z,19.20
